createdAt,value
2022-12-03T00:02:18.724Z,41.01
2022-12-03T00:04:45.965Z,40.98
2022-12-03T00:07:13.089Z,41.03
2022-12-03T00:09:40.185Z,40.98
2022-12-03T00:12:07.350Z,41.01
2022-12-03T00:14:36.161Z,41.09
2022-12-03T00:17:05.940Z,41.03
2022-12-03T00:19:34.389Z,40.96
2022-12-03T00:22:01.486Z,41.17
2022-12-03T00:24:28.592Z,41.02
2022-12-03T00:26:56.013Z,41.08
2022-12-03T00:29:23.100Z,41.13
2022-12-03T00:31:50.203Z,41.22
2022-12-03T00:34:17.347Z,41.05
2022-12-03T00:36:45.850Z,41.00
2022-12-03T00:39:13.005Z,41.14
2022-12-03T00:41:40.191Z,41.00
2022-12-03T00:44:07.302Z,40.83
2022-12-03T00:46:34.444Z,40.86
2022-12-03T00:49:01.575Z,40.97
2022-12-03T00:51:28.684Z,40.98
2022-12-03T00:53:57.172Z,40.91
2022-12-03T00:56:24.285Z,40.96
2022-12-03T00:58:51.362Z,40.89
2022-12-03T01:01:18.646Z,40.94
2022-12-03T01:03:45.828Z,41.28
2022-12-03T01:06:12.973Z,41.02
2022-12-03T01:08:40.147Z,41.07
2022-12-03T01:11:08.646Z,41.09
2022-12-03T01:13:35.741Z,41.00
2022-12-03T01:16:02.904Z,41.04
2022-12-03T01:18:30.292Z,41.10
2022-12-03T01:20:57.379Z,41.29
2022-12-03T01:23:24.490Z,41.21
2022-12-03T01:25:51.577Z,41.04
2022-12-03T01:28:20.011Z,41.03
2022-12-03T01:30:47.178Z,40.90
2022-12-03T01:33:14.371Z,41.13
2022-12-03T01:35:41.462Z,41.19
2022-12-03T01:38:08.572Z,41.04
2022-12-03T01:40:35.688Z,40.91
2022-12-03T01:43:02.796Z,40.97
2022-12-03T01:45:31.269Z,41.40
2022-12-03T01:47:58.509Z,40.97
2022-12-03T01:50:30.296Z,41.09
2022-12-03T01:53:01.062Z,41.12
2022-12-03T01:55:28.649Z,41.19
2022-12-03T01:57:58.687Z,41.21
2022-12-03T02:03:25.857Z,41.23
2022-12-03T02:05:53.330Z,41.25
2022-12-03T02:08:31.194Z,41.31
2022-12-03T02:11:02.051Z,41.25
2022-12-03T02:13:29.325Z,41.21
2022-12-03T02:15:56.742Z,41.40
2022-12-03T02:18:25.629Z,41.24
2022-12-03T02:21:01.671Z,41.25
2022-12-03T02:23:35.388Z,41.30
2022-12-03T02:26:04.050Z,41.21
2022-12-03T02:28:31.514Z,41.32
2022-12-03T02:30:58.650Z,41.17
2022-12-03T02:33:25.827Z,41.25
2022-12-03T02:35:53.026Z,41.21
2022-12-03T02:38:22.946Z,41.16
2022-12-03T02:40:53.578Z,41.06
2022-12-03T02:43:23.663Z,41.11
2022-12-03T02:45:53.316Z,41.21
2022-12-03T02:48:25.525Z,41.28
2022-12-03T02:50:54.506Z,41.29
2022-12-03T02:53:26.344Z,41.22
2022-12-03T02:55:55.991Z,41.38
2022-12-03T02:58:27.090Z,41.41
2022-12-03T03:00:55.363Z,41.45
2022-12-03T03:03:24.112Z,41.55
2022-12-03T03:05:51.572Z,41.43
2022-12-03T03:08:19.050Z,41.44
2022-12-03T03:10:47.646Z,41.57
2022-12-03T03:13:17.677Z,41.59
2022-12-03T03:15:46.254Z,41.51
2022-12-03T03:18:14.841Z,41.51
2022-12-03T03:20:43.365Z,41.49
2022-12-03T03:23:15.564Z,41.50
2022-12-03T03:25:47.275Z,41.47
2022-12-03T03:28:15.838Z,41.46
2022-12-03T03:30:44.041Z,41.34
2022-12-03T03:33:13.477Z,41.16
2022-12-03T03:35:41.839Z,41.18
2022-12-03T03:38:09.749Z,41.38
2022-12-03T03:40:38.295Z,41.21
2022-12-03T03:43:06.685Z,41.47
2022-12-03T03:45:33.933Z,41.50
2022-12-03T03:48:01.538Z,41.66
2022-12-03T03:50:31.922Z,41.57
2022-12-03T03:53:00.465Z,41.93
2022-12-03T03:55:28.113Z,41.88
2022-12-03T03:57:55.474Z,41.35
2022-12-03T04:00:22.983Z,40.62
2022-12-03T04:02:50.154Z,40.47
2022-12-03T04:05:19.445Z,40.12
2022-12-03T04:07:48.054Z,40.08
2022-12-03T04:10:15.681Z,40.18
2022-12-03T04:12:42.889Z,40.17
2022-12-03T04:15:10.344Z,40.39
2022-12-03T04:17:37.425Z,40.21
2022-12-03T04:20:05.805Z,40.28
2022-12-03T04:22:32.922Z,40.38
2022-12-03T04:25:01.384Z,40.42
2022-12-03T04:27:28.493Z,40.50
2022-12-03T04:29:55.593Z,40.55
2022-12-03T04:32:22.685Z,40.54
2022-12-03T04:34:49.832Z,40.81
2022-12-03T04:37:16.952Z,40.86
2022-12-03T04:39:44.166Z,40.77
2022-12-03T04:42:12.665Z,40.75
2022-12-03T04:44:39.777Z,40.95
2022-12-03T04:47:09.597Z,40.86
2022-12-03T04:49:38.427Z,40.97
2022-12-03T04:52:05.745Z,41.10
2022-12-03T04:54:32.939Z,41.01
2022-12-03T04:57:00.430Z,41.46
2022-12-03T04:59:28.992Z,41.37
2022-12-03T05:01:56.257Z,41.41
2022-12-03T05:04:23.584Z,41.52
2022-12-03T05:06:50.963Z,41.47
2022-12-03T05:09:18.151Z,41.61
2022-12-03T05:11:45.307Z,41.47
2022-12-03T05:14:12.649Z,41.47
2022-12-03T05:16:41.253Z,41.13
2022-12-03T05:19:09.064Z,41.22
2022-12-03T05:21:36.482Z,41.20
2022-12-03T05:24:04.226Z,41.15
2022-12-03T05:26:31.333Z,41.15
2022-12-03T05:28:58.426Z,41.13
2022-12-03T05:31:25.577Z,41.25
2022-12-03T05:33:54.068Z,41.28
2022-12-03T05:36:21.163Z,41.24
2022-12-03T05:38:48.242Z,41.26
2022-12-03T05:41:15.418Z,41.02
2022-12-03T05:43:42.526Z,41.37
2022-12-03T05:46:09.648Z,41.60
2022-12-03T05:48:36.770Z,43.89
2022-12-03T05:51:05.226Z,44.54
2022-12-03T05:53:32.313Z,45.32
2022-12-03T05:55:59.463Z,47.77
2022-12-03T05:58:26.583Z,43.70
2022-12-03T06:00:53.707Z,41.95
2022-12-03T06:03:20.941Z,41.37
2022-12-03T06:05:48.207Z,41.26
2022-12-03T06:08:16.733Z,39.13
2022-12-03T06:10:44.015Z,35.76
2022-12-03T06:13:11.117Z,34.19
2022-12-03T06:15:43.504Z,33.54
2022-12-03T06:18:11.195Z,32.56
2022-12-03T06:20:38.554Z,34.20
2022-12-03T06:23:05.664Z,35.42
2022-12-03T06:25:34.283Z,36.22
2022-12-03T06:28:01.393Z,36.21
2022-12-03T06:30:28.518Z,36.41
2022-12-03T06:32:55.640Z,36.76
2022-12-03T06:35:22.755Z,36.54
2022-12-03T06:37:49.855Z,36.13
2022-12-03T06:40:17.177Z,35.76
2022-12-03T06:42:45.643Z,35.79
2022-12-03T06:45:12.786Z,36.02
2022-12-03T06:47:39.933Z,36.28
2022-12-03T06:50:08.617Z,36.59
2022-12-03T06:52:35.741Z,36.67
2022-12-03T06:55:03.434Z,36.94
2022-12-03T06:57:30.706Z,37.15
2022-12-03T06:59:59.192Z,37.11
2022-12-03T07:02:26.347Z,37.28
2022-12-03T07:04:53.721Z,37.39
2022-12-03T07:07:21.190Z,37.41
2022-12-03T07:09:48.337Z,37.68
2022-12-03T07:12:15.419Z,37.67
2022-12-03T07:14:42.501Z,37.66
2022-12-03T07:17:10.954Z,37.74
2022-12-03T07:19:38.064Z,37.77
2022-12-03T07:22:05.158Z,37.85
2022-12-03T07:24:32.565Z,38.07
2022-12-03T07:26:59.671Z,38.52
2022-12-03T07:29:26.790Z,38.45
2022-12-03T07:31:53.981Z,38.38
2022-12-03T07:34:23.458Z,38.70
2022-12-03T07:36:50.586Z,38.65
2022-12-03T07:39:17.710Z,38.88
2022-12-03T07:41:44.839Z,39.24
2022-12-03T07:44:14.611Z,40.60
2022-12-03T07:46:42.451Z,40.36
2022-12-03T07:49:09.961Z,40.05
2022-12-03T07:51:38.447Z,39.60
2022-12-03T07:54:05.588Z,39.52
2022-12-03T07:56:32.696Z,39.54
2022-12-03T07:58:59.798Z,39.69
2022-12-03T08:01:27.040Z,39.54
2022-12-03T08:03:54.190Z,39.39
2022-12-03T08:06:21.296Z,49.06
2022-12-03T08:08:49.770Z,42.20
2022-12-03T08:11:16.941Z,42.02
2022-12-03T08:13:44.132Z,41.34
2022-12-03T08:16:16.391Z,41.40
2022-12-03T08:18:44.383Z,41.34
2022-12-03T08:21:13.068Z,41.05
2022-12-03T08:23:40.612Z,41.05
2022-12-03T08:26:17.500Z,40.72
2022-12-03T08:28:44.618Z,41.69
2022-12-03T08:31:17.127Z,42.68
2022-12-03T08:33:44.415Z,42.18
2022-12-03T08:36:14.509Z,42.39
2022-12-03T08:38:43.146Z,42.82
2022-12-03T08:41:14.139Z,42.80
2022-12-03T08:43:42.176Z,42.46
2022-12-03T08:46:15.831Z,42.26
2022-12-03T08:48:48.669Z,41.93
2022-12-03T08:51:21.868Z,41.87
2022-12-03T08:53:53.329Z,41.93
2022-12-03T08:56:27.604Z,41.69
2022-12-03T08:58:57.581Z,41.49
2022-12-03T09:01:32.826Z,41.58
2022-12-03T09:04:15.757Z,41.31
2022-12-03T09:06:42.939Z,41.53
2022-12-03T09:09:10.047Z,41.31
2022-12-03T09:11:38.552Z,41.24
2022-12-03T09:14:05.785Z,41.22
2022-12-03T09:16:33.011Z,41.13
2022-12-03T09:19:00.210Z,41.28
2022-12-03T09:21:27.312Z,41.26
2022-12-03T09:23:54.414Z,41.29
2022-12-03T09:26:21.534Z,42.15
2022-12-03T09:28:50.015Z,41.64
2022-12-03T09:31:18.279Z,41.83
2022-12-03T09:33:45.469Z,41.92
2022-12-03T09:36:12.639Z,41.53
2022-12-03T09:38:44.463Z,41.80
2022-12-03T09:41:13.661Z,41.59
2022-12-03T09:44:03.348Z,41.63
2022-12-03T09:46:30.244Z,41.43
2022-12-03T09:48:57.621Z,41.38
2022-12-03T09:51:30.398Z,41.19
2022-12-03T09:53:58.710Z,41.27
2022-12-03T09:56:25.853Z,40.97
2022-12-03T09:58:53.070Z,40.95
2022-12-03T10:01:20.487Z,40.81
2022-12-03T10:03:50.876Z,40.96
2022-12-03T10:06:20.693Z,40.81
2022-12-03T10:08:49.572Z,40.79
2022-12-03T10:11:18.019Z,41.08
2022-12-03T10:13:46.175Z,40.84
2022-12-03T10:16:16.395Z,40.79
2022-12-03T10:18:47.779Z,41.03
2022-12-03T10:21:20.273Z,40.88
2022-12-03T10:23:50.792Z,41.00
2022-12-03T10:26:38.677Z,40.87
2022-12-03T10:29:12.813Z,40.52
2022-12-03T10:31:39.966Z,40.58
2022-12-03T10:34:06.996Z,40.34
2022-12-03T10:36:35.641Z,40.48
2022-12-03T10:39:09.014Z,40.51
2022-12-03T10:41:37.236Z,40.50
2022-12-03T10:44:14.586Z,40.38
2022-12-03T10:46:42.350Z,40.37
2022-12-03T10:49:11.596Z,40.09
2022-12-03T10:51:40.125Z,40.03
2022-12-03T10:54:17.026Z,40.19
2022-12-03T10:56:45.213Z,40.31
2022-12-03T10:59:16.324Z,40.14
2022-12-03T11:01:43.959Z,40.18
2022-12-03T11:04:20.481Z,40.33
2022-12-03T11:06:49.847Z,40.34
2022-12-03T11:09:21.373Z,40.47
2022-12-03T11:11:49.723Z,40.51
2022-12-03T11:14:53.564Z,40.70
2022-12-03T11:17:45.864Z,40.70
2022-12-03T11:21:06.946Z,40.38
2022-12-03T11:24:18.903Z,40.31
2022-12-03T11:27:25.280Z,40.14
2022-12-03T11:29:58.533Z,39.98
2022-12-03T11:32:58.966Z,39.96
2022-12-03T11:35:27.702Z,39.92
2022-12-03T11:37:54.796Z,39.98
2022-12-03T11:40:37.700Z,39.69
2022-12-03T11:43:09.836Z,39.92
2022-12-03T11:45:38.385Z,39.92
2022-12-03T11:48:11.954Z,39.77
2022-12-03T11:50:41.316Z,39.65
2022-12-03T11:53:15.682Z,39.82
2022-12-03T11:55:46.665Z,40.01
2022-12-03T11:58:17.994Z,40.02
2022-12-03T12:00:49.922Z,39.84
2022-12-03T12:03:26.477Z,40.04
2022-12-03T12:06:05.319Z,40.21
2022-12-03T12:08:33.516Z,40.34
2022-12-03T12:11:02.757Z,40.24
2022-12-03T12:13:54.824Z,39.74
2022-12-03T12:16:52.241Z,39.59
2022-12-03T12:19:33.386Z,39.53
2022-12-03T12:22:28.993Z,39.64
2022-12-03T12:24:57.370Z,39.56
2022-12-03T12:27:34.773Z,39.59
2022-12-03T12:30:05.727Z,39.71
2022-12-03T12:32:38.288Z,39.50
2022-12-03T12:35:17.225Z,39.58
2022-12-03T12:37:53.525Z,39.92
2022-12-03T12:40:28.412Z,39.98
2022-12-03T12:42:58.364Z,39.75
2022-12-03T12:45:27.006Z,39.65
2022-12-03T12:48:02.661Z,39.88
2022-12-03T12:50:31.220Z,39.91
2022-12-03T12:53:01.940Z,39.82
2022-12-03T12:55:29.054Z,39.80
2022-12-03T12:58:02.461Z,39.83
2022-12-03T13:00:29.656Z,40.03
2022-12-03T13:02:59.965Z,40.01
2022-12-03T13:05:38.335Z,39.99
2022-12-03T13:08:20.349Z,39.73
2022-12-03T13:10:48.055Z,39.54
2022-12-03T13:13:20.434Z,39.50
2022-12-03T13:15:51.591Z,39.63
2022-12-03T13:18:32.513Z,39.54
2022-12-03T13:20:59.881Z,39.51
2022-12-03T13:23:30.030Z,39.50
2022-12-03T13:26:07.130Z,39.53
2022-12-03T13:28:41.791Z,39.62
2022-12-03T13:31:26.728Z,39.78
2022-12-03T13:33:55.416Z,39.64
2022-12-03T13:36:29.953Z,39.59
2022-12-03T13:38:57.445Z,39.58
2022-12-03T13:41:24.558Z,39.76
2022-12-03T13:43:53.040Z,39.68
2022-12-03T13:46:20.174Z,39.94
2022-12-03T13:48:47.348Z,39.72
2022-12-03T13:51:23.407Z,39.90
2022-12-03T13:53:50.736Z,39.90
2022-12-03T13:56:25.563Z,40.04
2022-12-03T13:58:54.673Z,39.73
2022-12-03T14:01:21.847Z,39.56
2022-12-03T14:03:49.248Z,39.65
2022-12-03T14:06:16.368Z,39.32
2022-12-03T14:08:44.108Z,39.24
2022-12-03T14:11:11.292Z,39.27
2022-12-03T14:13:38.375Z,39.56
2022-12-03T14:16:07.275Z,39.59
2022-12-03T14:18:34.415Z,39.72
2022-12-03T14:21:01.528Z,39.71
2022-12-03T14:23:28.626Z,39.54
2022-12-03T14:25:55.738Z,39.80
2022-12-03T14:28:22.831Z,39.59
2022-12-03T14:30:49.930Z,39.69
2022-12-03T14:33:18.411Z,39.46
2022-12-03T14:35:45.512Z,39.54
2022-12-03T14:38:12.605Z,39.46
2022-12-03T14:40:39.846Z,39.59
2022-12-03T14:43:06.951Z,39.86
2022-12-03T14:45:34.102Z,39.60
2022-12-03T14:48:01.310Z,39.58
2022-12-03T14:50:29.777Z,39.31
2022-12-03T14:52:56.876Z,39.34
2022-12-03T14:55:24.186Z,39.27
2022-12-03T14:57:51.296Z,39.34
2022-12-03T15:00:19.462Z,39.25
2022-12-03T15:02:46.676Z,39.26
2022-12-03T15:05:13.870Z,39.41
2022-12-03T15:07:42.317Z,39.60
2022-12-03T15:10:10.190Z,39.43
2022-12-03T15:12:37.282Z,39.49
2022-12-03T15:15:05.026Z,39.65
2022-12-03T15:17:32.456Z,39.82
2022-12-03T15:19:59.630Z,39.43
2022-12-03T15:22:26.778Z,39.43
2022-12-03T15:24:55.254Z,39.67
2022-12-03T15:27:22.373Z,39.62
2022-12-03T15:29:49.453Z,39.71
2022-12-03T15:32:16.568Z,39.70
2022-12-03T15:34:43.958Z,39.59
2022-12-03T15:37:11.044Z,39.93
2022-12-03T15:39:39.550Z,39.55
2022-12-03T15:42:10.935Z,39.43
2022-12-03T15:44:38.027Z,39.45
2022-12-03T15:47:05.213Z,39.53
2022-12-03T15:49:32.311Z,39.33
2022-12-03T15:51:59.431Z,39.30
2022-12-03T15:54:26.526Z,39.31
2022-12-03T15:56:57.274Z,39.25
2022-12-03T15:59:26.150Z,39.21
2022-12-03T16:01:53.287Z,39.06
2022-12-03T16:04:20.426Z,39.11
2022-12-03T16:06:47.545Z,39.42
2022-12-03T16:09:14.637Z,39.17
2022-12-03T16:11:41.721Z,39.22
2022-12-03T16:14:08.851Z,39.52
2022-12-03T16:16:37.321Z,39.50
2022-12-03T16:19:04.545Z,39.48
2022-12-03T16:21:31.753Z,39.68
2022-12-03T16:23:58.880Z,39.65
2022-12-03T16:26:26.196Z,39.40
2022-12-03T16:28:53.297Z,39.66
2022-12-03T16:31:20.461Z,39.50
2022-12-03T16:33:49.150Z,39.56
2022-12-03T16:36:16.749Z,39.46
2022-12-03T16:38:43.943Z,39.75
2022-12-03T16:41:11.059Z,39.34
2022-12-03T16:43:38.171Z,39.56
2022-12-03T16:46:05.767Z,39.36
2022-12-03T16:48:32.896Z,40.04
2022-12-03T16:51:01.459Z,55.46
2022-12-03T16:53:28.545Z,41.25
2022-12-03T16:55:55.636Z,40.27
2022-12-03T16:58:22.808Z,39.92
2022-12-03T17:00:50.303Z,39.42
2022-12-03T17:03:17.435Z,39.50
2022-12-03T17:05:44.700Z,39.40
2022-12-03T17:08:14.296Z,39.25
2022-12-03T17:10:41.594Z,41.39
2022-12-03T17:13:10.295Z,40.56
2022-12-03T17:15:38.471Z,40.10
2022-12-03T17:18:06.467Z,40.08
2022-12-03T17:20:33.820Z,39.82
2022-12-03T17:23:00.914Z,40.07
2022-12-03T17:25:30.549Z,39.89
2022-12-03T17:27:57.667Z,39.79
2022-12-03T17:30:24.768Z,39.79
2022-12-03T17:32:51.932Z,39.71
2022-12-03T17:35:19.133Z,39.67
2022-12-03T17:37:46.245Z,39.43
2022-12-03T17:40:14.986Z,39.45
2022-12-03T17:42:43.568Z,39.46
2022-12-03T17:45:11.571Z,39.43
2022-12-03T17:47:38.993Z,39.28
2022-12-03T17:50:07.582Z,39.19
2022-12-03T17:52:34.686Z,39.25
2022-12-03T17:55:11.878Z,39.50
2022-12-03T17:57:43.021Z,39.58
2022-12-03T18:00:11.319Z,39.66
2022-12-03T18:02:38.558Z,39.66
2022-12-03T18:05:06.049Z,39.63
2022-12-03T18:07:33.370Z,39.57
2022-12-03T18:10:00.650Z,39.60
2022-12-03T18:12:27.773Z,39.52
2022-12-03T18:14:56.257Z,39.46
2022-12-03T18:17:23.500Z,39.58
2022-12-03T18:19:50.618Z,39.33
2022-12-03T18:22:18.031Z,39.41
2022-12-03T18:24:47.607Z,39.19
2022-12-03T18:27:17.505Z,39.27
2022-12-03T18:29:44.622Z,39.44
2022-12-03T18:32:27.899Z,39.19
2022-12-03T18:34:55.795Z,39.17
2022-12-03T18:37:26.161Z,39.21
2022-12-03T18:39:53.859Z,39.08
2022-12-03T18:42:22.337Z,39.12
2022-12-03T18:44:51.486Z,38.95
2022-12-03T18:47:22.052Z,39.30
2022-12-03T18:49:49.581Z,39.39
2022-12-03T18:52:18.765Z,39.52
2022-12-03T18:54:45.958Z,39.59
2022-12-03T18:57:13.099Z,39.66
2022-12-03T18:59:40.269Z,39.80
2022-12-03T19:02:13.079Z,39.58
2022-12-03T19:04:46.734Z,39.17
2022-12-03T19:07:14.384Z,39.17
2022-12-03T19:09:42.120Z,39.31
2022-12-03T19:12:14.421Z,38.99
2022-12-03T19:14:42.087Z,39.17
2022-12-03T19:17:09.201Z,39.45
2022-12-03T19:19:37.039Z,39.05
2022-12-03T19:22:05.524Z,39.22
2022-12-03T19:24:32.848Z,39.13
2022-12-03T19:26:59.938Z,39.03
2022-12-03T19:29:27.056Z,38.96
2022-12-03T19:31:54.223Z,39.05
2022-12-03T19:34:21.363Z,39.15
2022-12-03T19:36:48.477Z,38.97
2022-12-03T19:39:16.952Z,39.15
2022-12-03T19:41:44.063Z,39.33
2022-12-03T19:44:12.572Z,39.41
2022-12-03T19:46:39.728Z,39.50
2022-12-03T19:49:06.936Z,39.58
2022-12-03T19:51:35.557Z,39.42
2022-12-03T19:54:03.418Z,39.51
2022-12-03T19:56:31.864Z,39.48
2022-12-03T19:58:59.140Z,39.16
2022-12-03T20:01:29.496Z,39.13
2022-12-03T20:03:58.861Z,39.08
2022-12-03T20:06:28.144Z,39.04
2022-12-03T20:08:56.394Z,38.92
2022-12-03T20:11:25.726Z,38.99
2022-12-03T20:13:55.889Z,39.00
2022-12-03T20:16:24.270Z,38.93
2022-12-03T20:18:55.690Z,38.97
2022-12-03T20:21:22.845Z,38.88
2022-12-03T20:23:50.111Z,38.94
2022-12-03T20:26:19.786Z,38.91
2022-12-03T20:28:47.755Z,38.89
2022-12-03T20:31:18.686Z,38.85
2022-12-03T20:33:48.353Z,39.00
2022-12-03T20:36:20.745Z,39.12
2022-12-03T20:38:48.518Z,39.26
2022-12-03T20:41:17.634Z,39.35
2022-12-03T20:43:45.441Z,39.49
2022-12-03T20:46:14.708Z,39.42
2022-12-03T20:48:44.364Z,39.19
2022-12-03T20:51:13.563Z,39.06
2022-12-03T20:53:41.281Z,39.03
2022-12-03T20:56:09.047Z,39.02
2022-12-03T20:58:36.307Z,39.02
2022-12-03T21:01:14.067Z,38.75
2022-12-03T21:03:44.371Z,38.85
2022-12-03T21:06:12.624Z,38.57
2022-12-03T21:08:41.978Z,38.70
2022-12-03T21:11:11.176Z,38.90
2022-12-03T21:13:38.780Z,38.83
2022-12-03T21:16:07.799Z,38.62
2022-12-03T21:18:35.239Z,38.72
2022-12-03T21:21:05.165Z,38.66
2022-12-03T21:23:33.346Z,38.84
2022-12-03T21:26:05.382Z,39.11
2022-12-03T21:28:32.620Z,39.08
2022-12-03T21:31:01.162Z,39.04
2022-12-03T21:33:29.520Z,39.17
2022-12-03T21:35:57.254Z,39.18
2022-12-03T21:38:26.984Z,39.29
2022-12-03T21:40:54.180Z,38.84
2022-12-03T21:43:21.801Z,38.70
2022-12-03T21:45:49.935Z,38.74
2022-12-03T21:48:17.737Z,38.68
2022-12-03T21:50:45.934Z,38.75
2022-12-03T21:53:13.118Z,38.75
2022-12-03T21:55:41.676Z,38.71
2022-12-03T21:58:08.937Z,38.57
2022-12-03T22:00:36.435Z,38.72
2022-12-03T22:03:03.761Z,38.64
2022-12-03T22:05:30.940Z,38.60
2022-12-03T22:07:58.115Z,38.48
2022-12-03T22:10:25.500Z,38.65
2022-12-03T22:12:53.965Z,38.70
2022-12-03T22:15:21.082Z,38.77
2022-12-03T22:17:48.279Z,38.77
2022-12-03T22:20:15.604Z,38.97
2022-12-03T22:22:42.748Z,39.06
2022-12-03T22:25:10.005Z,38.96
2022-12-03T22:27:37.123Z,39.13
2022-12-03T22:30:07.107Z,39.03
2022-12-03T22:32:34.240Z,38.96
2022-12-03T22:35:01.374Z,38.73
2022-12-03T22:37:28.516Z,38.84
2022-12-03T22:39:57.315Z,38.77
2022-12-03T22:42:24.830Z,38.87
2022-12-03T22:44:51.928Z,38.81
2022-12-03T22:47:20.437Z,38.59
2022-12-03T22:49:47.546Z,38.60
2022-12-03T22:52:14.660Z,38.46
2022-12-03T22:54:44.635Z,38.67
2022-12-03T22:57:11.822Z,38.53
2022-12-03T22:59:38.943Z,38.64
2022-12-03T23:02:06.126Z,38.58
2022-12-03T23:04:34.601Z,38.72
2022-12-03T23:07:01.703Z,38.83
2022-12-03T23:09:29.031Z,39.00
2022-12-03T23:11:56.145Z,38.96
2022-12-03T23:14:23.251Z,39.22
2022-12-03T23:16:50.523Z,39.16
2022-12-03T23:19:17.636Z,39.07
2022-12-03T23:21:46.108Z,39.12
2022-12-03T23:24:13.245Z,38.82
2022-12-03T23:26:40.352Z,38.98
2022-12-03T23:29:07.615Z,38.72
2022-12-03T23:31:35.247Z,38.60
2022-12-03T23:34:03.340Z,38.66
2022-12-03T23:36:32.698Z,38.49
2022-12-03T23:39:01.272Z,38.52
2022-12-03T23:41:28.467Z,38.66
2022-12-03T23:43:56.565Z,38.59
2022-12-03T23:46:25.788Z,38.58
2022-12-03T23:48:53.153Z,38.91
2022-12-03T23:51:23.461Z,39.02
2022-12-03T23:53:51.257Z,38.93
2022-12-03T23:56:22.291Z,39.12
2022-12-03T23:58:49.450Z,39.36
